sensor_id;sensor_type;location;lat;lon;timestamp;P1;durP1;ratioP1;P2;durP2;ratioP2
46266;SDS011;31998;48.798;15.066;2023-02-28T00:00:43;9.03;;;7.43;;
46266;SDS011;31998;48.798;15.066;2023-02-28T00:03:08;9.70;;;7.57;;
46266;SDS011;31998;48.798;15.066;2023-02-28T00:05:34;9.63;;;8.43;;
46266;SDS011;31998;48.798;15.066;2023-02-28T00:07:59;10.23;;;7.60;;
46266;SDS011;31998;48.798;15.066;2023-02-28T00:10:26;12.83;;;7.47;;
46266;SDS011;31998;48.798;15.066;2023-02-28T00:12:54;16.53;;;8.33;;
46266;SDS011;31998;48.798;15.066;2023-02-28T00:15:21;13.23;;;7.53;;
46266;SDS011;31998;48.798;15.066;2023-02-28T00:17:48;9.03;;;7.70;;
46266;SDS011;31998;48.798;15.066;2023-02-28T00:20:13;11.97;;;8.60;;
46266;SDS011;31998;48.798;15.066;2023-02-28T00:22:39;10.00;;;8.77;;
46266;SDS011;31998;48.798;15.066;2023-02-28T00:25:06;9.40;;;8.40;;
46266;SDS011;31998;48.798;15.066;2023-02-28T00:27:32;10.37;;;7.90;;
46266;SDS011;31998;48.798;15.066;2023-02-28T00:29:57;10.27;;;7.53;;
46266;SDS011;31998;48.798;15.066;2023-02-28T00:32:22;7.33;;;6.67;;
46266;SDS011;31998;48.798;15.066;2023-02-28T00:34:47;7.57;;;6.83;;
46266;SDS011;31998;48.798;15.066;2023-02-28T00:37:13;7.70;;;6.90;;
46266;SDS011;31998;48.798;15.066;2023-02-28T00:39:38;10.43;;;6.73;;
46266;SDS011;31998;48.798;15.066;2023-02-28T00:42:03;7.07;;;6.37;;
46266;SDS011;31998;48.798;15.066;2023-02-28T00:44:29;11.23;;;6.87;;
46266;SDS011;31998;48.798;15.066;2023-02-28T00:46:54;6.47;;;5.90;;
46266;SDS011;31998;48.798;15.066;2023-02-28T00:49:21;9.53;;;6.70;;
46266;SDS011;31998;48.798;15.066;2023-02-28T00:51:46;6.00;;;5.50;;
46266;SDS011;31998;48.798;15.066;2023-02-28T00:54:11;7.30;;;6.63;;
46266;SDS011;31998;48.798;15.066;2023-02-28T00:56:37;8.20;;;6.50;;
46266;SDS011;31998;48.798;15.066;2023-02-28T00:59:02;6.83;;;6.03;;
46266;SDS011;31998;48.798;15.066;2023-02-28T01:01:27;12.13;;;7.47;;
46266;SDS011;31998;48.798;15.066;2023-02-28T01:03:52;7.80;;;7.00;;
46266;SDS011;31998;48.798;15.066;2023-02-28T01:06:18;8.83;;;6.93;;
46266;SDS011;31998;48.798;15.066;2023-02-28T01:08:43;8.90;;;6.47;;
46266;SDS011;31998;48.798;15.066;2023-02-28T01:11:09;8.23;;;6.30;;
46266;SDS011;31998;48.798;15.066;2023-02-28T01:13:35;7.73;;;6.23;;
46266;SDS011;31998;48.798;15.066;2023-02-28T01:16:00;7.33;;;6.53;;
46266;SDS011;31998;48.798;15.066;2023-02-28T01:18:25;6.53;;;5.93;;
46266;SDS011;31998;48.798;15.066;2023-02-28T01:20:51;7.07;;;5.73;;
46266;SDS011;31998;48.798;15.066;2023-02-28T01:23:17;7.50;;;5.63;;
46266;SDS011;31998;48.798;15.066;2023-02-28T01:25:43;8.60;;;6.40;;
46266;SDS011;31998;48.798;15.066;2023-02-28T01:28:08;9.33;;;7.53;;
46266;SDS011;31998;48.798;15.066;2023-02-28T01:30:33;8.40;;;5.67;;
46266;SDS011;31998;48.798;15.066;2023-02-28T01:32:59;6.70;;;5.93;;
46266;SDS011;31998;48.798;15.066;2023-02-28T01:35:24;13.57;;;7.93;;
46266;SDS011;31998;48.798;15.066;2023-02-28T01:37:49;9.37;;;6.83;;
46266;SDS011;31998;48.798;15.066;2023-02-28T01:40:15;11.83;;;6.80;;
46266;SDS011;31998;48.798;15.066;2023-02-28T01:42:40;8.07;;;7.27;;
46266;SDS011;31998;48.798;15.066;2023-02-28T01:47:40;8.73;;;7.10;;
46266;SDS011;31998;48.798;15.066;2023-02-28T01:50:09;9.80;;;6.80;;
46266;SDS011;31998;48.798;15.066;2023-02-28T01:52:37;9.60;;;7.50;;
46266;SDS011;31998;48.798;15.066;2023-02-28T01:55:03;8.33;;;6.43;;
46266;SDS011;31998;48.798;15.066;2023-02-28T01:57:31;9.93;;;7.43;;
46266;SDS011;31998;48.798;15.066;2023-02-28T02:00:03;14.73;;;7.80;;
46266;SDS011;31998;48.798;15.066;2023-02-28T02:02:29;17.57;;;8.77;;
46266;SDS011;31998;48.798;15.066;2023-02-28T02:07:56;10.73;;;8.10;;
46266;SDS011;31998;48.798;15.066;2023-02-28T02:10:25;12.30;;;7.77;;
46266;SDS011;31998;48.798;15.066;2023-02-28T02:15:51;8.80;;;7.57;;
46266;SDS011;31998;48.798;15.066;2023-02-28T02:26:30;9.90;;;7.50;;
46266;SDS011;31998;48.798;15.066;2023-02-28T02:29:06;11.03;;;8.70;;
46266;SDS011;31998;48.798;15.066;2023-02-28T02:36:46;10.60;;;7.83;;
46266;SDS011;31998;48.798;15.066;2023-02-28T02:41:52;8.60;;;7.50;;
46266;SDS011;31998;48.798;15.066;2023-02-28T02:44:20;9.67;;;8.27;;
46266;SDS011;31998;48.798;15.066;2023-02-28T02:46:47;9.30;;;7.47;;
46266;SDS011;31998;48.798;15.066;2023-02-28T02:49:15;13.57;;;8.97;;
46266;SDS011;31998;48.798;15.066;2023-02-28T02:51:42;14.43;;;8.97;;
46266;SDS011;31998;48.798;15.066;2023-02-28T02:54:09;9.53;;;8.33;;
46266;SDS011;31998;48.798;15.066;2023-02-28T02:56:35;14.07;;;8.47;;
46266;SDS011;31998;48.798;15.066;2023-02-28T02:59:02;13.03;;;8.90;;
46266;SDS011;31998;48.798;15.066;2023-02-28T03:01:29;13.30;;;8.80;;
46266;SDS011;31998;48.798;15.066;2023-02-28T03:03:57;14.47;;;9.53;;
46266;SDS011;31998;48.798;15.066;2023-02-28T03:06:22;11.00;;;7.83;;
46266;SDS011;31998;48.798;15.066;2023-02-28T03:08:48;9.93;;;8.60;;
46266;SDS011;31998;48.798;15.066;2023-02-28T03:11:14;14.77;;;8.40;;
46266;SDS011;31998;48.798;15.066;2023-02-28T03:19:46;10.43;;;7.73;;
46266;SDS011;31998;48.798;15.066;2023-02-28T03:24:21;15.73;;;8.63;;
46266;SDS011;31998;48.798;15.066;2023-02-28T03:26:50;8.30;;;7.47;;
46266;SDS011;31998;48.798;15.066;2023-02-28T03:31:44;10.60;;;8.10;;
46266;SDS011;31998;48.798;15.066;2023-02-28T03:34:20;10.70;;;9.10;;
46266;SDS011;31998;48.798;15.066;2023-02-28T03:36:48;10.20;;;7.63;;
46266;SDS011;31998;48.798;15.066;2023-02-28T03:39:16;14.10;;;8.37;;
46266;SDS011;31998;48.798;15.066;2023-02-28T03:41:43;10.60;;;8.03;;
46266;SDS011;31998;48.798;15.066;2023-02-28T03:44:13;15.83;;;8.63;;
46266;SDS011;31998;48.798;15.066;2023-02-28T03:46:41;11.60;;;8.43;;
46266;SDS011;31998;48.798;15.066;2023-02-28T03:49:11;13.30;;;8.57;;
46266;SDS011;31998;48.798;15.066;2023-02-28T03:51:40;14.63;;;9.03;;
46266;SDS011;31998;48.798;15.066;2023-02-28T03:54:07;12.00;;;8.60;;
46266;SDS011;31998;48.798;15.066;2023-02-28T03:56:37;11.87;;;7.73;;
46266;SDS011;31998;48.798;15.066;2023-02-28T03:59:07;9.27;;;7.57;;
46266;SDS011;31998;48.798;15.066;2023-02-28T04:01:41;12.93;;;8.40;;
46266;SDS011;31998;48.798;15.066;2023-02-28T04:04:09;11.33;;;8.90;;
46266;SDS011;31998;48.798;15.066;2023-02-28T04:06:34;11.87;;;8.87;;
46266;SDS011;31998;48.798;15.066;2023-02-28T04:09:00;13.73;;;8.67;;
46266;SDS011;31998;48.798;15.066;2023-02-28T04:13:54;14.80;;;8.70;;
46266;SDS011;31998;48.798;15.066;2023-02-28T04:16:19;14.30;;;9.73;;
46266;SDS011;31998;48.798;15.066;2023-02-28T04:18:44;14.07;;;8.83;;
46266;SDS011;31998;48.798;15.066;2023-02-28T04:21:10;12.40;;;8.57;;
46266;SDS011;31998;48.798;15.066;2023-02-28T04:23:35;16.83;;;8.47;;
46266;SDS011;31998;48.798;15.066;2023-02-28T04:26:00;11.60;;;8.33;;
46266;SDS011;31998;48.798;15.066;2023-02-28T04:28:26;12.10;;;7.83;;
46266;SDS011;31998;48.798;15.066;2023-02-28T04:30:58;14.30;;;9.20;;
46266;SDS011;31998;48.798;15.066;2023-02-28T04:33:24;12.63;;;8.60;;
46266;SDS011;31998;48.798;15.066;2023-02-28T04:36:10;11.87;;;8.73;;
46266;SDS011;31998;48.798;15.066;2023-02-28T04:38:35;13.70;;;9.27;;
46266;SDS011;31998;48.798;15.066;2023-02-28T04:41:01;13.57;;;8.90;;
46266;SDS011;31998;48.798;15.066;2023-02-28T04:43:27;13.90;;;9.60;;
46266;SDS011;31998;48.798;15.066;2023-02-28T04:45:52;16.67;;;9.67;;
46266;SDS011;31998;48.798;15.066;2023-02-28T04:48:19;13.63;;;8.60;;
46266;SDS011;31998;48.798;15.066;2023-02-28T04:50:44;15.20;;;9.40;;
46266;SDS011;31998;48.798;15.066;2023-02-28T04:53:09;10.50;;;8.27;;
46266;SDS011;31998;48.798;15.066;2023-02-28T04:55:35;13.33;;;9.43;;
46266;SDS011;31998;48.798;15.066;2023-02-28T04:58:00;15.60;;;9.57;;
46266;SDS011;31998;48.798;15.066;2023-02-28T05:00:25;13.17;;;9.40;;
46266;SDS011;31998;48.798;15.066;2023-02-28T05:02:50;12.33;;;8.30;;
46266;SDS011;31998;48.798;15.066;2023-02-28T05:05:16;16.10;;;10.20;;
46266;SDS011;31998;48.798;15.066;2023-02-28T05:07:43;15.23;;;9.80;;
46266;SDS011;31998;48.798;15.066;2023-02-28T05:10:08;13.30;;;9.67;;
46266;SDS011;31998;48.798;15.066;2023-02-28T05:12:34;13.97;;;10.40;;
46266;SDS011;31998;48.798;15.066;2023-02-28T05:14:59;15.83;;;10.57;;
46266;SDS011;31998;48.798;15.066;2023-02-28T05:17:26;14.60;;;9.67;;
46266;SDS011;31998;48.798;15.066;2023-02-28T05:19:51;16.50;;;10.40;;
46266;SDS011;31998;48.798;15.066;2023-02-28T05:22:16;18.10;;;11.30;;
46266;SDS011;31998;48.798;15.066;2023-02-28T05:24:41;16.13;;;9.87;;
46266;SDS011;31998;48.798;15.066;2023-02-28T05:27:07;14.03;;;9.50;;
46266;SDS011;31998;48.798;15.066;2023-02-28T05:29:33;18.50;;;10.20;;
46266;SDS011;31998;48.798;15.066;2023-02-28T05:31:59;16.23;;;9.80;;
46266;SDS011;31998;48.798;15.066;2023-02-28T05:34:24;17.60;;;10.90;;
46266;SDS011;31998;48.798;15.066;2023-02-28T05:36:49;22.47;;;10.73;;
46266;SDS011;31998;48.798;15.066;2023-02-28T05:39:14;22.80;;;11.30;;
46266;SDS011;31998;48.798;15.066;2023-02-28T05:41:43;21.27;;;12.50;;
46266;SDS011;31998;48.798;15.066;2023-02-28T05:44:08;19.60;;;10.73;;
46266;SDS011;31998;48.798;15.066;2023-02-28T05:46:33;27.70;;;12.60;;
46266;SDS011;31998;48.798;15.066;2023-02-28T05:48:59;17.40;;;10.83;;
46266;SDS011;31998;48.798;15.066;2023-02-28T05:51:25;20.60;;;11.93;;
46266;SDS011;31998;48.798;15.066;2023-02-28T05:53:51;16.67;;;11.60;;
46266;SDS011;31998;48.798;15.066;2023-02-28T05:56:16;22.33;;;13.30;;
46266;SDS011;31998;48.798;15.066;2023-02-28T05:58:41;22.80;;;12.37;;
46266;SDS011;31998;48.798;15.066;2023-02-28T06:04:06;19.70;;;12.63;;
46266;SDS011;31998;48.798;15.066;2023-02-28T06:06:31;15.40;;;11.63;;
46266;SDS011;31998;48.798;15.066;2023-02-28T06:08:59;23.20;;;12.27;;
46266;SDS011;31998;48.798;15.066;2023-02-28T06:11:24;20.43;;;13.57;;
46266;SDS011;31998;48.798;15.066;2023-02-28T06:13:56;25.97;;;14.30;;
46266;SDS011;31998;48.798;15.066;2023-02-28T06:16:22;20.30;;;12.93;;
46266;SDS011;31998;48.798;15.066;2023-02-28T06:18:47;20.57;;;12.73;;
46266;SDS011;31998;48.798;15.066;2023-02-28T06:21:13;21.10;;;12.60;;
46266;SDS011;31998;48.798;15.066;2023-02-28T06:23:38;22.47;;;14.43;;
46266;SDS011;31998;48.798;15.066;2023-02-28T06:26:03;21.00;;;12.87;;
46266;SDS011;31998;48.798;15.066;2023-02-28T06:28:28;25.30;;;12.60;;
46266;SDS011;31998;48.798;15.066;2023-02-28T06:30:54;16.17;;;11.13;;
46266;SDS011;31998;48.798;15.066;2023-02-28T06:33:19;17.77;;;11.23;;
46266;SDS011;31998;48.798;15.066;2023-02-28T06:35:46;23.53;;;12.53;;
46266;SDS011;31998;48.798;15.066;2023-02-28T06:38:11;25.17;;;11.30;;
46266;SDS011;31998;48.798;15.066;2023-02-28T06:40:36;17.90;;;10.90;;
46266;SDS011;31998;48.798;15.066;2023-02-28T06:43:02;24.87;;;11.63;;
46266;SDS011;31998;48.798;15.066;2023-02-28T06:45:27;22.40;;;11.80;;
46266;SDS011;31998;48.798;15.066;2023-02-28T06:47:52;19.70;;;12.50;;
46266;SDS011;31998;48.798;15.066;2023-02-28T06:50:18;15.17;;;10.67;;
46266;SDS011;31998;48.798;15.066;2023-02-28T06:52:45;18.43;;;11.63;;
46266;SDS011;31998;48.798;15.066;2023-02-28T06:55:10;19.60;;;11.90;;
46266;SDS011;31998;48.798;15.066;2023-02-28T06:57:36;22.33;;;11.03;;
46266;SDS011;31998;48.798;15.066;2023-02-28T07:00:03;21.20;;;11.70;;
46266;SDS011;31998;48.798;15.066;2023-02-28T07:02:29;17.23;;;12.57;;
46266;SDS011;31998;48.798;15.066;2023-02-28T07:04:56;20.07;;;12.07;;
46266;SDS011;31998;48.798;15.066;2023-02-28T07:07:21;26.07;;;13.87;;
46266;SDS011;31998;48.798;15.066;2023-02-28T07:09:47;21.33;;;13.23;;
46266;SDS011;31998;48.798;15.066;2023-02-28T07:12:12;19.10;;;11.93;;
46266;SDS011;31998;48.798;15.066;2023-02-28T07:14:37;21.40;;;12.50;;
46266;SDS011;31998;48.798;15.066;2023-02-28T07:17:02;17.50;;;11.43;;
46266;SDS011;31998;48.798;15.066;2023-02-28T07:19:28;18.83;;;11.93;;
46266;SDS011;31998;48.798;15.066;2023-02-28T07:21:53;16.20;;;12.43;;
46266;SDS011;31998;48.798;15.066;2023-02-28T07:24:18;23.70;;;13.50;;
46266;SDS011;31998;48.798;15.066;2023-02-28T07:26:44;20.33;;;10.93;;
46266;SDS011;31998;48.798;15.066;2023-02-28T07:29:09;18.03;;;12.70;;
46266;SDS011;31998;48.798;15.066;2023-02-28T07:31:34;20.27;;;13.57;;
46266;SDS011;31998;48.798;15.066;2023-02-28T07:34:00;21.77;;;13.17;;
46266;SDS011;31998;48.798;15.066;2023-02-28T07:36:25;17.57;;;12.43;;
46266;SDS011;31998;48.798;15.066;2023-02-28T07:38:50;19.70;;;12.40;;
46266;SDS011;31998;48.798;15.066;2023-02-28T07:41:16;19.70;;;12.40;;
46266;SDS011;31998;48.798;15.066;2023-02-28T07:43:42;19.57;;;13.47;;
46266;SDS011;31998;48.798;15.066;2023-02-28T07:46:08;19.07;;;12.73;;
46266;SDS011;31998;48.798;15.066;2023-02-28T07:48:34;24.30;;;15.67;;
46266;SDS011;31998;48.798;15.066;2023-02-28T07:50:59;17.23;;;12.13;;
46266;SDS011;31998;48.798;15.066;2023-02-28T07:53:25;25.20;;;13.13;;
46266;SDS011;31998;48.798;15.066;2023-02-28T07:55:51;18.57;;;11.60;;
46266;SDS011;31998;48.798;15.066;2023-02-28T07:58:19;18.40;;;12.77;;
46266;SDS011;31998;48.798;15.066;2023-02-28T08:00:44;21.83;;;11.57;;
46266;SDS011;31998;48.798;15.066;2023-02-28T08:03:12;15.93;;;11.47;;
46266;SDS011;31998;48.798;15.066;2023-02-28T08:05:38;23.00;;;12.17;;
46266;SDS011;31998;48.798;15.066;2023-02-28T08:08:04;24.93;;;11.90;;
46266;SDS011;31998;48.798;15.066;2023-02-28T08:10:29;19.10;;;12.20;;
46266;SDS011;31998;48.798;15.066;2023-02-28T08:12:54;20.33;;;12.73;;
46266;SDS011;31998;48.798;15.066;2023-02-28T08:15:19;17.60;;;11.87;;
46266;SDS011;31998;48.798;15.066;2023-02-28T08:17:45;19.10;;;11.03;;
46266;SDS011;31998;48.798;15.066;2023-02-28T08:20:10;21.77;;;12.50;;
46266;SDS011;31998;48.798;15.066;2023-02-28T08:22:35;18.70;;;12.67;;
46266;SDS011;31998;48.798;15.066;2023-02-28T08:25:01;17.43;;;10.57;;
46266;SDS011;31998;48.798;15.066;2023-02-28T08:27:26;21.07;;;11.13;;
46266;SDS011;31998;48.798;15.066;2023-02-28T08:29:51;18.37;;;11.37;;
46266;SDS011;31998;48.798;15.066;2023-02-28T08:32:17;18.37;;;10.03;;
46266;SDS011;31998;48.798;15.066;2023-02-28T08:34:42;18.63;;;11.63;;
46266;SDS011;31998;48.798;15.066;2023-02-28T08:37:07;17.30;;;11.73;;
46266;SDS011;31998;48.798;15.066;2023-02-28T08:39:36;16.83;;;10.97;;
46266;SDS011;31998;48.798;15.066;2023-02-28T08:42:02;23.07;;;12.13;;
46266;SDS011;31998;48.798;15.066;2023-02-28T08:44:27;18.23;;;11.47;;
46266;SDS011;31998;48.798;15.066;2023-02-28T08:46:53;18.80;;;12.90;;
46266;SDS011;31998;48.798;15.066;2023-02-28T08:49:18;16.83;;;10.70;;
46266;SDS011;31998;48.798;15.066;2023-02-28T08:51:44;15.70;;;10.93;;
46266;SDS011;31998;48.798;15.066;2023-02-28T08:54:09;16.53;;;11.77;;
46266;SDS011;31998;48.798;15.066;2023-02-28T08:56:37;22.60;;;11.90;;
46266;SDS011;31998;48.798;15.066;2023-02-28T08:59:02;17.00;;;10.90;;
46266;SDS011;31998;48.798;15.066;2023-02-28T09:01:28;14.70;;;10.80;;
46266;SDS011;31998;48.798;15.066;2023-02-28T09:03:54;19.80;;;11.10;;
46266;SDS011;31998;48.798;15.066;2023-02-28T09:06:20;19.20;;;11.37;;
46266;SDS011;31998;48.798;15.066;2023-02-28T09:08:45;21.37;;;11.57;;
46266;SDS011;31998;48.798;15.066;2023-02-28T09:11:11;18.50;;;11.23;;
46266;SDS011;31998;48.798;15.066;2023-02-28T09:13:37;19.00;;;12.37;;
46266;SDS011;31998;48.798;15.066;2023-02-28T09:16:03;16.27;;;12.30;;
46266;SDS011;31998;48.798;15.066;2023-02-28T09:18:29;19.80;;;13.80;;
46266;SDS011;31998;48.798;15.066;2023-02-28T09:20:54;21.57;;;12.80;;
46266;SDS011;31998;48.798;15.066;2023-02-28T09:23:20;18.17;;;12.97;;
46266;SDS011;31998;48.798;15.066;2023-02-28T09:25:46;16.87;;;13.13;;
46266;SDS011;31998;48.798;15.066;2023-02-28T09:28:12;16.53;;;12.00;;
46266;SDS011;31998;48.798;15.066;2023-02-28T09:30:39;19.90;;;12.63;;
46266;SDS011;31998;48.798;15.066;2023-02-28T09:33:04;22.13;;;13.10;;
46266;SDS011;31998;48.798;15.066;2023-02-28T09:35:29;17.53;;;12.17;;
46266;SDS011;31998;48.798;15.066;2023-02-28T09:37:55;17.23;;;12.43;;
46266;SDS011;31998;48.798;15.066;2023-02-28T09:40:22;20.63;;;13.10;;
46266;SDS011;31998;48.798;15.066;2023-02-28T09:42:48;20.40;;;12.40;;
46266;SDS011;31998;48.798;15.066;2023-02-28T09:47:52;19.13;;;14.47;;
46266;SDS011;31998;48.798;15.066;2023-02-28T09:50:28;14.40;;;12.63;;
46266;SDS011;31998;48.798;15.066;2023-02-28T09:52:54;21.27;;;13.90;;
46266;SDS011;31998;48.798;15.066;2023-02-28T09:57:48;17.43;;;10.73;;
46266;SDS011;31998;48.798;15.066;2023-02-28T10:05:08;20.07;;;12.37;;
46266;SDS011;31998;48.798;15.066;2023-02-28T10:07:39;17.17;;;12.47;;
46266;SDS011;31998;48.798;15.066;2023-02-28T10:10:45;16.97;;;11.90;;
46266;SDS011;31998;48.798;15.066;2023-02-28T10:15:51;20.10;;;11.20;;
46266;SDS011;31998;48.798;15.066;2023-02-28T10:18:20;14.47;;;11.80;;
46266;SDS011;31998;48.798;15.066;2023-02-28T10:20:46;14.77;;;12.07;;
46266;SDS011;31998;48.798;15.066;2023-02-28T10:23:23;20.37;;;12.20;;
46266;SDS011;31998;48.798;15.066;2023-02-28T10:25:55;20.90;;;11.80;;
46266;SDS011;31998;48.798;15.066;2023-02-28T10:28:22;15.10;;;12.30;;
46266;SDS011;31998;48.798;15.066;2023-02-28T10:30:48;16.37;;;11.80;;
46266;SDS011;31998;48.798;15.066;2023-02-28T10:33:24;17.63;;;12.77;;
46266;SDS011;31998;48.798;15.066;2023-02-28T10:35:50;18.13;;;13.27;;
46266;SDS011;31998;48.798;15.066;2023-02-28T10:38:18;16.97;;;12.70;;
46266;SDS011;31998;48.798;15.066;2023-02-28T10:40:43;15.37;;;12.60;;
46266;SDS011;31998;48.798;15.066;2023-02-28T10:45:37;31.13;;;13.57;;
46266;SDS011;31998;48.798;15.066;2023-02-28T10:48:04;15.57;;;13.20;;
46266;SDS011;31998;48.798;15.066;2023-02-28T10:53:05;15.37;;;12.13;;
46266;SDS011;31998;48.798;15.066;2023-02-28T10:55:32;16.30;;;12.77;;
46266;SDS011;31998;48.798;15.066;2023-02-28T10:57:57;19.87;;;13.50;;
46266;SDS011;31998;48.798;15.066;2023-02-28T11:00:24;17.07;;;13.33;;
46266;SDS011;31998;48.798;15.066;2023-02-28T11:02:50;18.13;;;13.90;;
46266;SDS011;31998;48.798;15.066;2023-02-28T11:07:51;17.90;;;12.60;;
46266;SDS011;31998;48.798;15.066;2023-02-28T11:10:18;17.77;;;13.10;;
46266;SDS011;31998;48.798;15.066;2023-02-28T11:12:44;17.63;;;14.00;;
46266;SDS011;31998;48.798;15.066;2023-02-28T11:15:26;17.50;;;13.07;;
46266;SDS011;31998;48.798;15.066;2023-02-28T11:17:53;21.93;;;13.43;;
46266;SDS011;31998;48.798;15.066;2023-02-28T11:20:21;23.60;;;13.27;;
46266;SDS011;31998;48.798;15.066;2023-02-28T11:22:48;21.47;;;12.53;;
46266;SDS011;31998;48.798;15.066;2023-02-28T11:25:23;19.57;;;12.80;;
46266;SDS011;31998;48.798;15.066;2023-02-28T11:27:50;15.60;;;13.10;;
46266;SDS011;31998;48.798;15.066;2023-02-28T11:30:26;13.83;;;11.70;;
46266;SDS011;31998;48.798;15.066;2023-02-28T11:32:52;17.17;;;13.40;;
46266;SDS011;31998;48.798;15.066;2023-02-28T11:35:18;15.40;;;12.87;;
46266;SDS011;31998;48.798;15.066;2023-02-28T11:37:47;17.20;;;13.03;;
46266;SDS011;31998;48.798;15.066;2023-02-28T11:40:14;15.27;;;11.93;;
46266;SDS011;31998;48.798;15.066;2023-02-28T11:45:31;24.33;;;13.23;;
46266;SDS011;31998;48.798;15.066;2023-02-28T11:48:04;20.67;;;14.27;;
46266;SDS011;31998;48.798;15.066;2023-02-28T11:55:54;21.97;;;12.43;;
46266;SDS011;31998;48.798;15.066;2023-02-28T12:06:22;17.40;;;13.03;;
46266;SDS011;31998;48.798;15.066;2023-02-28T12:13:53;19.93;;;12.93;;
46266;SDS011;31998;48.798;15.066;2023-02-28T12:16:28;15.07;;;13.27;;
46266;SDS011;31998;48.798;15.066;2023-02-28T12:23:57;18.47;;;13.63;;
46266;SDS011;31998;48.798;15.066;2023-02-28T12:29:39;16.83;;;11.67;;
46266;SDS011;31998;48.798;15.066;2023-02-28T12:31:55;19.00;;;12.73;;
46266;SDS011;31998;48.798;15.066;2023-02-28T12:34:22;20.57;;;12.53;;
46266;SDS011;31998;48.798;15.066;2023-02-28T12:36:50;20.60;;;13.67;;
46266;SDS011;31998;48.798;15.066;2023-02-28T12:39:25;19.83;;;14.20;;
46266;SDS011;31998;48.798;15.066;2023-02-28T12:41:53;13.83;;;12.07;;
46266;SDS011;31998;48.798;15.066;2023-02-28T12:44:21;17.90;;;11.67;;
46266;SDS011;31998;48.798;15.066;2023-02-28T12:46:48;14.10;;;11.70;;
46266;SDS011;31998;48.798;15.066;2023-02-28T12:50:15;15.73;;;13.10;;
46266;SDS011;31998;48.798;15.066;2023-02-28T12:52:09;17.87;;;14.10;;
46266;SDS011;31998;48.798;15.066;2023-02-28T13:09:59;21.43;;;15.30;;
46266;SDS011;31998;48.798;15.066;2023-02-28T13:12:24;15.83;;;11.63;;
46266;SDS011;31998;48.798;15.066;2023-02-28T13:14:51;16.27;;;11.60;;
46266;SDS011;31998;48.798;15.066;2023-02-28T13:17:25;16.23;;;12.97;;
46266;SDS011;31998;48.798;15.066;2023-02-28T13:24:46;19.50;;;13.20;;
46266;SDS011;31998;48.798;15.066;2023-02-28T13:27:19;15.80;;;12.90;;
46266;SDS011;31998;48.798;15.066;2023-02-28T13:29:49;13.87;;;12.40;;
46266;SDS011;31998;48.798;15.066;2023-02-28T13:32:19;15.03;;;12.70;;
46266;SDS011;31998;48.798;15.066;2023-02-28T13:47:29;15.63;;;10.90;;
46266;SDS011;31998;48.798;15.066;2023-02-28T13:50:07;16.83;;;11.70;;
46266;SDS011;31998;48.798;15.066;2023-02-28T13:52:42;16.50;;;11.03;;
46266;SDS011;31998;48.798;15.066;2023-02-28T14:05:26;11.93;;;10.70;;
46266;SDS011;31998;48.798;15.066;2023-02-28T14:07:56;14.00;;;10.63;;
46266;SDS011;31998;48.798;15.066;2023-02-28T14:10:31;20.23;;;12.10;;
46266;SDS011;31998;48.798;15.066;2023-02-28T14:15:45;11.47;;;10.37;;
46266;SDS011;31998;48.798;15.066;2023-02-28T14:18:20;13.77;;;9.83;;
46266;SDS011;31998;48.798;15.066;2023-02-28T14:20:47;12.60;;;11.10;;
46266;SDS011;31998;48.798;15.066;2023-02-28T14:23:19;12.83;;;10.00;;
46266;SDS011;31998;48.798;15.066;2023-02-28T14:31:07;14.87;;;10.80;;
46266;SDS011;31998;48.798;15.066;2023-02-28T14:36:08;16.10;;;11.40;;
46266;SDS011;31998;48.798;15.066;2023-02-28T14:38:43;12.70;;;11.27;;
46266;SDS011;31998;48.798;15.066;2023-02-28T14:41:15;11.73;;;10.30;;
46266;SDS011;31998;48.798;15.066;2023-02-28T14:44:42;15.07;;;10.77;;
46266;SDS011;31998;48.798;15.066;2023-02-28T14:46:37;14.40;;;10.90;;
46266;SDS011;31998;48.798;15.066;2023-02-28T14:49:03;15.10;;;10.70;;
46266;SDS011;31998;48.798;15.066;2023-02-28T14:51:29;13.43;;;10.53;;
46266;SDS011;31998;48.798;15.066;2023-02-28T14:53:59;12.80;;;9.40;;
46266;SDS011;31998;48.798;15.066;2023-02-28T14:56:37;15.60;;;10.60;;
46266;SDS011;31998;48.798;15.066;2023-02-28T14:59:03;17.90;;;10.73;;
46266;SDS011;31998;48.798;15.066;2023-02-28T15:01:29;12.93;;;10.70;;
46266;SDS011;31998;48.798;15.066;2023-02-28T15:04:00;12.87;;;10.43;;
46266;SDS011;31998;48.798;15.066;2023-02-28T15:06:26;16.43;;;10.63;;
46266;SDS011;31998;48.798;15.066;2023-02-28T15:09:07;13.63;;;10.93;;
46266;SDS011;31998;48.798;15.066;2023-02-28T15:11:33;14.03;;;10.37;;
46266;SDS011;31998;48.798;15.066;2023-02-28T15:13:58;14.60;;;10.70;;
46266;SDS011;31998;48.798;15.066;2023-02-28T15:16:37;13.70;;;10.83;;
46266;SDS011;31998;48.798;15.066;2023-02-28T15:21:33;16.03;;;11.00;;
46266;SDS011;31998;48.798;15.066;2023-02-28T15:24:04;13.57;;;10.00;;
46266;SDS011;31998;48.798;15.066;2023-02-28T15:26:31;13.70;;;11.17;;
46266;SDS011;31998;48.798;15.066;2023-02-28T15:29:01;15.97;;;12.30;;
46266;SDS011;31998;48.798;15.066;2023-02-28T15:31:28;14.90;;;12.00;;
46266;SDS011;31998;48.798;15.066;2023-02-28T15:33:55;18.80;;;13.63;;
46266;SDS011;31998;48.798;15.066;2023-02-28T15:36:20;16.47;;;12.80;;
46266;SDS011;31998;48.798;15.066;2023-02-28T15:38:50;19.80;;;12.10;;
46266;SDS011;31998;48.798;15.066;2023-02-28T15:41:25;15.77;;;11.73;;
46266;SDS011;31998;48.798;15.066;2023-02-28T15:46:35;17.90;;;12.30;;
46266;SDS011;31998;48.798;15.066;2023-02-28T15:49:00;14.30;;;12.00;;
46266;SDS011;31998;48.798;15.066;2023-02-28T15:51:33;14.13;;;11.77;;
46266;SDS011;31998;48.798;15.066;2023-02-28T15:54:00;14.03;;;11.60;;
46266;SDS011;31998;48.798;15.066;2023-02-28T15:56:29;24.50;;;12.97;;
46266;SDS011;31998;48.798;15.066;2023-02-28T15:59:03;18.17;;;12.67;;
46266;SDS011;31998;48.798;15.066;2023-02-28T16:01:30;17.83;;;13.10;;
46266;SDS011;31998;48.798;15.066;2023-02-28T16:04:01;15.73;;;12.07;;
46266;SDS011;31998;48.798;15.066;2023-02-28T16:08:55;18.77;;;13.57;;
46266;SDS011;31998;48.798;15.066;2023-02-28T16:11:21;20.30;;;12.80;;
46266;SDS011;31998;48.798;15.066;2023-02-28T16:13:46;15.43;;;11.90;;
46266;SDS011;31998;48.798;15.066;2023-02-28T16:16:16;15.40;;;12.70;;
46266;SDS011;31998;48.798;15.066;2023-02-28T16:18:42;25.00;;;12.30;;
46266;SDS011;31998;48.798;15.066;2023-02-28T16:21:08;18.70;;;12.30;;
46266;SDS011;31998;48.798;15.066;2023-02-28T16:23:33;16.33;;;12.53;;
46266;SDS011;31998;48.798;15.066;2023-02-28T16:25:58;16.30;;;12.17;;
46266;SDS011;31998;48.798;15.066;2023-02-28T16:28:25;21.83;;;13.30;;
46266;SDS011;31998;48.798;15.066;2023-02-28T16:30:54;12.80;;;11.50;;
46266;SDS011;31998;48.798;15.066;2023-02-28T16:33:20;17.63;;;11.97;;
46266;SDS011;31998;48.798;15.066;2023-02-28T16:35:45;15.97;;;11.80;;
46266;SDS011;31998;48.798;15.066;2023-02-28T16:38:10;17.07;;;13.67;;
46266;SDS011;31998;48.798;15.066;2023-02-28T16:40:35;23.20;;;12.53;;
46266;SDS011;31998;48.798;15.066;2023-02-28T16:43:01;15.67;;;11.47;;
46266;SDS011;31998;48.798;15.066;2023-02-28T16:45:29;12.40;;;10.43;;